Time;durP1;ratioP1;P1;durP2;ratioP2;P2;SDS_P1;SDS_P2;PMS_P1;PMS_P2;Temp;Humidity;BMP_temperature;BMP_pressure;BME280_temperature;BME280_humidity;BME280_pressure;Samples;Min_cycle;Max_cycle;Signal;HPM_P1;HPM_P2
2023/01/11 00:00:10;;;;;;;5.18;1.23;;;4.50;99.90;;;;;;5043871;28;20031;-77
2023/01/11 00:02:36;;;;;;;4.78;1.23;;;4.40;99.90;;;;;;5061094;28;20437;-78
2023/01/11 00:05:03;;;;;;;4.90;1.35;;;4.30;99.90;;;;;;5042396;28;20029;-78
2023/01/11 00:07:28;;;;;;;8.85;1.73;;;4.40;99.90;;;;;;5060130;28;20136;-78
2023/01/11 00:09:54;;;;;;;6.18;1.08;;;4.30;99.90;;;;;;5060075;28;20474;-78
2023/01/11 00:12:20;;;;;;;5.80;1.30;;;4.30;99.90;;;;;;5041809;28;20021;-78
2023/01/11 00:14:45;;;;;;;6.53;1.50;;;4.30;99.90;;;;;;5059790;28;20053;-78
2023/01/11 00:17:11;;;;;;;7.15;1.67;;;4.30;99.90;;;;;;5041597;28;20064;-78
2023/01/11 00:19:36;;;;;;;7.13;1.50;;;4.20;99.90;;;;;;5059884;28;20096;-78
2023/01/11 00:22:02;;;;;;;5.05;1.50;;;4.20;99.90;;;;;;5059018;28;20021;-78
2023/01/11 00:24:28;;;;;;;5.40;2.03;;;4.20;99.90;;;;;;5040780;28;20390;-78
2023/01/11 00:26:53;;;;;;;5.55;1.77;;;4.10;99.90;;;;;;5041297;28;20049;-78
2023/01/11 00:29:19;;;;;;;2.72;1.35;;;4.10;99.90;;;;;;5059373;28;20036;-78
2023/01/11 00:31:45;;;;;;;6.78;1.70;;;4.00;99.90;;;;;;5059232;28;20028;-78
2023/01/11 00:34:10;;;;;;;5.00;2.50;;;4.00;99.90;;;;;;5041135;28;20052;-78
2023/01/11 00:36:36;;;;;;;7.80;1.88;;;3.90;99.90;;;;;;5058911;28;20036;-78
2023/01/11 00:39:02;;;;;;;4.20;1.70;;;3.90;99.90;;;;;;5041652;28;20025;-78
2023/01/11 00:49:41;;;;;;;7.00;2.38;;;3.60;99.90;;;;;;5056890;28;20083;-78
2023/01/11 00:52:10;;;;;;;8.90;2.40;;;3.60;99.90;;;;;;5038699;28;20043;-78
2023/01/11 00:54:40;;;;;;;6.03;1.90;;;3.60;99.90;;;;;;5056995;28;20021;-77
2023/01/11 00:57:06;;;;;;;7.65;2.78;;;3.60;99.90;;;;;;5057101;28;20093;-78
2023/01/11 00:59:38;;;;;;;6.95;2.60;;;3.50;99.90;;;;;;5039853;28;20061;-78
2023/01/11 01:02:03;;;;;;;9.80;2.53;;;3.50;99.90;;;;;;5038635;28;20363;-77
2023/01/11 01:04:29;;;;;;;9.80;2.63;;;3.50;99.90;;;;;;5040176;28;20078;-78
2023/01/11 01:06:55;;;;;;;5.97;2.25;;;3.50;99.90;;;;;;5058208;28;20056;-77
2023/01/11 01:09:21;;;;;;;10.30;2.28;;;3.30;99.90;;;;;;5040816;28;20110;-78
2023/01/11 01:11:46;;;;;;;4.30;1.95;;;3.30;99.90;;;;;;5058551;28;20028;-78
2023/01/11 01:14:27;;;;;;;4.50;2.17;;;3.20;99.90;;;;;;5041122;28;20029;-77
2023/01/11 01:16:55;;;;;;;8.20;2.25;;;3.10;99.90;;;;;;5040119;28;20029;-78
2023/01/11 01:19:21;;;;;;;6.97;2.28;;;3.00;99.90;;;;;;5056708;28;20036;-77
2023/01/11 01:21:48;;;;;;;8.48;2.20;;;2.90;99.90;;;;;;5039006;28;20083;-77
2023/01/11 01:24:14;;;;;;;7.72;2.10;;;2.70;99.90;;;;;;5039936;28;20152;-78
2023/01/11 01:26:40;;;;;;;6.72;2.20;;;2.70;99.90;;;;;;5057740;28;20455;-77
2023/01/11 01:29:06;;;;;;;5.88;2.00;;;2.60;99.90;;;;;;5056934;28;20099;-78
2023/01/11 01:31:31;;;;;;;6.53;2.22;;;2.50;99.90;;;;;;5057675;28;20108;-77
2023/01/11 01:33:57;;;;;;;8.20;2.05;;;2.50;99.90;;;;;;5039424;28;20021;-78
2023/01/11 01:36:23;;;;;;;5.93;2.00;;;2.40;99.90;;;;;;5040211;28;20029;-78
2023/01/11 01:38:48;;;;;;;4.90;2.00;;;2.40;99.90;;;;;;5058317;28;20080;-78
2023/01/11 01:41:14;;;;;;;12.20;2.78;;;2.20;99.90;;;;;;5041325;28;20036;-77
2023/01/11 01:43:55;;;;;;;8.85;2.42;;;2.10;99.90;;;;;;5058971;28;20024;-78
2023/01/11 01:46:25;;;;;;;4.85;2.53;;;2.00;99.90;;;;;;5041450;28;20028;-78
2023/01/11 01:49:01;;;;;;;6.50;2.15;;;1.90;99.90;;;;;;5059370;28;20051;-77
2023/01/11 01:51:51;;;;;;;6.45;2.95;;;1.80;99.90;;;;;;5041641;28;20025;-78
2023/01/11 01:54:23;;;;;;;4.63;2.35;;;1.70;99.90;;;;;;5041201;28;20458;-78
2023/01/11 01:56:54;;;;;;;8.82;2.00;;;1.70;99.90;;;;;;5040957;28;20032;-78
2023/01/11 01:59:22;;;;;;;7.63;2.63;;;1.70;99.90;;;;;;5041446;28;20021;-78
2023/01/11 02:01:48;;;;;;;9.10;2.10;;;1.60;99.90;;;;;;5040619;28;20052;-78
2023/01/11 02:04:34;;;;;;;4.90;2.10;;;1.50;99.90;;;;;;5055336;28;20041;-78
2023/01/11 02:07:04;;;;;;;7.07;2.38;;;1.40;99.90;;;;;;5038195;28;20355;-78
2023/01/11 02:09:42;;;;;;;6.13;2.10;;;1.30;99.90;;;;;;5055128;28;20029;-78
2023/01/11 02:12:08;;;;;;;9.52;2.25;;;1.20;99.90;;;;;;5037021;28;20021;-78
2023/01/11 02:14:35;;;;;;;6.40;2.00;;;1.10;99.90;;;;;;5054296;28;20072;-78
2023/01/11 02:17:01;;;;;;;15.75;2.78;;;1.10;99.90;;;;;;5036724;28;20056;-78
2023/01/11 02:19:33;;;;;;;5.65;2.13;;;1.00;99.90;;;;;;5054787;28;20494;-78
2023/01/11 02:22:29;;;;;;;7.93;2.20;;;0.90;99.90;;;;;;5036928;28;20098;-78
2023/01/11 02:25:33;;;;;;;8.13;2.70;;;0.80;99.90;;;;;;5036678;28;20480;-78
2023/01/11 02:28:10;;;;;;;7.30;2.17;;;0.80;99.90;;;;;;5024015;28;20049;-78
2023/01/11 02:30:39;;;;;;;9.15;2.63;;;0.70;99.90;;;;;;5054169;28;20056;-78
2023/01/11 02:33:10;;;;;;;8.38;3.53;;;0.60;99.90;;;;;;5054328;28;20033;-78
2023/01/11 02:35:42;;;;;;;5.43;2.25;;;0.60;99.90;;;;;;5036272;28;20029;-78
2023/01/11 02:38:33;;;;;;;6.97;2.53;;;0.60;99.90;;;;;;5036520;28;20037;-78
2023/01/11 02:41:23;;;;;;;5.70;2.78;;;0.50;99.90;;;;;;5053926;28;20021;-78
2023/01/11 02:46:57;;;;;;;7.75;2.50;;;0.50;99.90;;;;;;5055589;28;20505;-78
2023/01/11 02:49:44;;;;;;;7.55;2.47;;;0.40;99.90;;;;;;5057760;28;20458;-78
2023/01/11 02:52:57;;;;;;;5.65;2.20;;;0.40;99.90;;;;;;5057858;28;20075;-78
2023/01/11 02:55:27;;;;;;;7.60;1.75;;;0.40;99.90;;;;;;4995969;28;20044;-78
2023/01/11 02:57:56;;;;;;;3.70;2.20;;;0.30;99.90;;;;;;5039734;28;20120;-78
2023/01/11 03:00:24;;;;;;;10.30;2.30;;;0.40;99.90;;;;;;5057215;28;20025;-78
2023/01/11 03:03:13;;;;;;;7.03;2.47;;;0.30;99.90;;;;;;5039673;28;20470;-78
2023/01/11 03:05:49;;;;;;;11.32;2.75;;;0.30;99.90;;;;;;5039329;28;20118;-78
2023/01/11 03:08:29;;;;;;;11.35;2.28;;;0.30;99.90;;;;;;5057358;28;20036;-78
2023/01/11 03:11:09;;;;;;;3.95;2.08;;;0.20;99.90;;;;;;5039394;28;20430;-78
2023/01/11 03:13:49;;;;;;;7.78;2.20;;;0.20;99.90;;;;;;5039485;28;20067;-78
2023/01/11 03:16:29;;;;;;;5.38;2.67;;;0.10;99.90;;;;;;5057406;28;20029;-78
2023/01/11 03:19:50;;;;;;;13.23;2.30;;;0.10;99.90;;;;;;5057225;28;20021;-78
2023/01/11 03:22:30;;;;;;;6.03;2.33;;;0.10;99.90;;;;;;4948168;28;20086;-78
2023/01/11 03:25:18;;;;;;;5.47;2.60;;;0.00;99.90;;;;;;5057111;28;20112;-78
2023/01/11 03:28:01;;;;;;;4.95;2.28;;;0.10;99.90;;;;;;5056480;28;20057;-78
2023/01/11 03:30:32;;;;;;;10.20;2.60;;;0.00;99.90;;;;;;5056731;28;20029;-78
2023/01/11 03:33:07;;;;;;;7.57;2.33;;;0.00;99.90;;;;;;5039206;28;20111;-78
2023/01/11 03:35:53;;;;;;;8.40;2.45;;;-0.10;99.90;;;;;;5057981;28;20033;-78
2023/01/11 03:38:35;;;;;;;8.18;2.70;;;-0.10;99.90;;;;;;5039947;28;20032;-78
2023/01/11 03:41:05;;;;;;;6.05;2.17;;;-0.20;99.90;;;;;;5057457;28;20454;-78
2023/01/11 03:43:35;;;;;;;8.07;2.75;;;-0.20;99.90;;;;;;5039348;28;20458;-78
2023/01/11 03:46:16;;;;;;;9.10;2.60;;;-0.20;99.90;;;;;;5039178;28;20040;-78
2023/01/11 03:48:44;;;;;;;7.63;2.40;;;-0.20;99.90;;;;;;5057152;28;20095;-78
2023/01/11 03:51:14;;;;;;;4.90;2.03;;;-0.20;99.90;;;;;;5056833;28;20021;-78
2023/01/11 03:53:43;;;;;;;9.00;2.22;;;-0.30;99.90;;;;;;5056521;28;20032;-78
2023/01/11 03:56:11;;;;;;;8.98;2.95;;;-0.30;99.90;;;;;;5056375;28;20052;-78
2023/01/11 03:58:37;;;;;;;5.93;2.35;;;-0.10;99.90;;;;;;5039077;28;20119;-79
2023/01/11 04:01:03;;;;;;;3.33;1.88;;;-0.40;99.90;;;;;;5056565;28;20069;-79
2023/01/11 04:03:29;;;;;;;7.95;2.60;;;-0.20;99.90;;;;;;5039498;28;20029;-78
2023/01/11 04:05:59;;;;;;;6.95;2.53;;;-0.40;99.90;;;;;;5038250;28;20052;-78
2023/01/11 04:08:25;;;;;;;7.15;3.00;;;-0.30;99.90;;;;;;5038225;28;20040;-78
2023/01/11 04:10:51;;;;;;;8.07;2.63;;;-0.40;99.90;;;;;;5038871;28;20025;-79
2023/01/11 04:13:16;;;;;;;8.32;2.88;;;-0.40;99.90;;;;;;5038620;28;20160;-78
2023/01/11 04:15:42;;;;;;;5.97;2.08;;;-0.20;99.90;;;;;;5055908;28;20459;-79
2023/01/11 04:18:08;;;;;;;6.25;2.40;;;-0.10;99.90;;;;;;5056204;28;20035;-78
2023/01/11 04:20:35;;;;;;;8.95;2.40;;;-0.50;99.90;;;;;;5038631;28;20382;-79
2023/01/11 04:23:02;;;;;;;6.63;2.30;;;-0.50;99.90;;;;;;5056211;28;20116;-78
2023/01/11 04:25:28;;;;;;;7.20;2.90;;;-0.50;99.90;;;;;;5039017;28;20059;-79
2023/01/11 04:27:53;;;;;;;9.43;4.18;;;-0.40;99.90;;;;;;5055839;28;20502;-78
2023/01/11 04:30:20;;;;;;;8.75;3.22;;;-0.30;99.90;;;;;;5038221;28;20029;-78
2023/01/11 04:32:45;;;;;;;7.50;2.90;;;-0.50;99.90;;;;;;5038152;28;20028;-78
2023/01/11 04:35:11;;;;;;;10.77;3.40;;;-0.50;99.90;;;;;;5055873;28;20028;-78
2023/01/11 04:37:37;;;;;;;7.35;2.88;;;-0.30;99.90;;;;;;5055574;28;20477;-78
2023/01/11 04:40:03;;;;;;;10.13;3.03;;;-0.20;99.90;;;;;;5055793;28;20025;-78
2023/01/11 04:42:29;;;;;;;13.15;2.67;;;-0.50;99.90;;;;;;5037881;28;20025;-79
2023/01/11 04:44:54;;;;;;;10.52;2.95;;;-0.50;99.90;;;;;;5038019;28;20144;-79
2023/01/11 04:47:22;;;;;;;11.70;2.90;;;-0.20;99.90;;;;;;5037856;28;20458;-79
2023/01/11 04:49:47;;;;;;;13.32;3.67;;;-0.60;99.90;;;;;;5055695;28;20083;-79
2023/01/11 04:52:15;;;;;;;12.10;3.63;;;0.00;99.90;;;;;;5037971;28;20029;-79
2023/01/11 04:54:41;;;;;;;14.43;3.67;;;-0.70;99.90;;;;;;5038157;28;20075;-79
2023/01/11 04:57:11;;;;;;;9.85;3.53;;;-0.70;99.90;;;;;;5055511;28;20448;-78
2023/01/11 04:59:37;;;;;;;12.93;3.70;;;-0.70;99.90;;;;;;5037878;28;20487;-79
2023/01/11 05:02:02;;;;;;;12.10;3.25;;;-0.60;99.90;;;;;;5055074;28;20025;-79
2023/01/11 05:04:28;;;;;;;9.57;2.95;;;-0.70;99.90;;;;;;5055384;28;20078;-79
2023/01/11 05:06:54;;;;;;;9.65;3.10;;;-0.40;99.90;;;;;;5037381;28;20029;-79
2023/01/11 05:09:19;;;;;;;10.23;3.05;;;-0.70;99.90;;;;;;5054998;28;20040;-78
2023/01/11 05:11:45;;;;;;;9.13;2.90;;;-0.70;99.90;;;;;;5055227;28;20025;-78
2023/01/11 05:14:11;;;;;;;8.80;3.22;;;-0.70;99.90;;;;;;5054913;28;20100;-78
2023/01/11 05:16:36;;;;;;;8.15;3.35;;;-0.50;99.90;;;;;;5055263;28;20025;-79
2023/01/11 05:19:03;;;;;;;13.70;2.83;;;-0.80;99.90;;;;;;5055250;28;20418;-77
2023/01/11 05:21:34;;;;;;;8.52;3.80;;;-0.80;99.90;;;;;;5054574;28;20483;-76
2023/01/11 05:24:03;;;;;;;9.80;3.85;;;-0.70;99.90;;;;;;5054897;28;20021;-77
2023/01/11 05:26:32;;;;;;;8.63;3.60;;;-0.80;99.90;;;;;;5054650;28;20124;-77
2023/01/11 05:28:59;;;;;;;9.80;3.70;;;-0.80;99.90;;;;;;5036980;28;20056;-77
2023/01/11 05:31:26;;;;;;;6.28;3.00;;;-0.70;99.90;;;;;;5037165;28;20033;-78
2023/01/11 05:33:54;;;;;;;8.23;3.17;;;-0.80;99.90;;;;;;5055091;28;20024;-78
2023/01/11 05:36:21;;;;;;;12.43;3.40;;;-0.60;99.90;;;;;;5037163;28;20029;-79
2023/01/11 05:38:48;;;;;;;15.50;4.70;;;-0.60;99.90;;;;;;5036994;28;20068;-79
2023/01/11 05:41:15;;;;;;;7.82;3.47;;;-0.80;99.90;;;;;;5036995;28;20036;-79
2023/01/11 05:46:29;;;;;;;14.05;4.30;;;-0.80;99.90;;;;;;5054921;28;20107;-79
2023/01/11 05:48:55;;;;;;;9.00;3.60;;;-0.20;99.90;;;;;;5036855;28;20028;-80
2023/01/11 05:51:21;;;;;;;10.23;4.05;;;-0.90;99.90;;;;;;5037237;28;20116;-79
2023/01/11 05:53:47;;;;;;;13.20;5.07;;;-1.00;99.90;;;;;;5037050;28;20171;-80
2023/01/11 05:56:12;;;;;;;8.02;4.50;;;-1.10;99.90;;;;;;5054613;28;20450;-79
2023/01/11 05:58:38;;;;;;;9.60;4.68;;;-1.10;99.90;;;;;;5036822;28;20429;-79
2023/01/11 06:01:04;;;;;;;12.50;4.90;;;-1.20;99.90;;;;;;5055023;28;20028;-78
2023/01/11 06:03:30;;;;;;;16.05;4.47;;;-1.20;99.90;;;;;;5054467;28;20016;-79
2023/01/11 06:05:58;;;;;;;16.48;4.20;;;-1.20;99.90;;;;;;5036521;28;20036;-79
2023/01/11 06:08:24;;;;;;;12.20;3.70;;;-1.10;99.90;;;;;;5036705;28;20037;-79
2023/01/11 06:10:54;;;;;;;10.93;4.10;;;-1.00;99.90;;;;;;5038653;28;20075;-79
2023/01/11 06:13:27;;;;;;;10.07;3.97;;;-1.00;99.90;;;;;;5054479;28;20025;-78
2023/01/11 06:16:01;;;;;;;12.25;4.60;;;-0.90;99.90;;;;;;5036539;28;20028;-78
2023/01/11 06:18:47;;;;;;;12.57;4.38;;;-1.00;99.90;;;;;;5054209;28;20028;-79
2023/01/11 06:21:14;;;;;;;12.10;4.65;;;-1.10;99.90;;;;;;5053722;28;20074;-79
2023/01/11 06:23:42;;;;;;;10.15;4.82;;;-1.10;99.90;;;;;;5036344;28;20025;-79
2023/01/11 06:26:11;;;;;;;10.75;4.90;;;-1.00;99.90;;;;;;5036627;28;20124;-79
2023/01/11 06:28:37;;;;;;;14.75;5.35;;;-1.20;99.90;;;;;;5054344;28;20505;-79
2023/01/11 06:31:04;;;;;;;18.20;5.70;;;-1.20;99.90;;;;;;5036288;28;20025;-79
2023/01/11 06:33:31;;;;;;;13.20;5.65;;;-1.20;99.90;;;;;;5036612;28;20028;-78
2023/01/11 06:35:57;;;;;;;13.02;5.47;;;-1.20;99.90;;;;;;5035974;28;20021;-78
2023/01/11 06:38:24;;;;;;;17.00;5.55;;;-1.00;99.90;;;;;;5036503;28;20033;-79
2023/01/11 06:40:52;;;;;;;15.38;4.78;;;-1.10;99.90;;;;;;5036300;28;20025;-79
2023/01/11 06:43:18;;;;;;;24.90;5.78;;;-1.00;99.90;;;;;;5053859;28;20044;-78
2023/01/11 06:45:44;;;;;;;14.10;5.70;;;-1.00;99.90;;;;;;5053879;28;20470;-79
2023/01/11 06:48:10;;;;;;;18.60;5.90;;;-1.00;99.90;;;;;;5035899;28;20044;-79
2023/01/11 06:50:35;;;;;;;16.65;6.57;;;-0.90;99.90;;;;;;5036127;28;20032;-79
2023/01/11 06:53:01;;;;;;;22.45;6.60;;;-0.30;99.90;;;;;;5036198;28;20032;-78
2023/01/11 06:55:28;;;;;;;20.88;6.85;;;-0.80;99.90;;;;;;5035863;28;20115;-78
2023/01/11 06:57:54;;;;;;;25.15;6.15;;;-0.90;99.90;;;;;;5053655;28;20021;-78
2023/01/11 07:00:20;;;;;;;16.40;6.30;;;-0.90;99.90;;;;;;5053615;28;20381;-78
2023/01/11 07:02:47;;;;;;;12.60;5.55;;;-0.90;99.90;;;;;;5035853;28;20095;-78
2023/01/11 07:05:13;;;;;;;18.13;6.43;;;-1.00;99.90;;;;;;5035808;28;20032;-79
2023/01/11 07:07:40;;;;;;;15.18;6.35;;;-0.90;99.90;;;;;;5053306;28;20458;-79
2023/01/11 07:10:08;;;;;;;19.40;6.55;;;-0.90;99.90;;;;;;5053201;28;20112;-79
2023/01/11 07:12:35;;;;;;;18.90;6.80;;;-0.90;99.90;;;;;;5053353;28;20501;-79
2023/01/11 07:15:01;;;;;;;15.98;7.32;;;-0.80;99.90;;;;;;5053567;28;20040;-79
2023/01/11 07:17:27;;;;;;;17.45;7.50;;;-0.80;99.90;;;;;;5053471;28;20041;-79
2023/01/11 07:19:53;;;;;;;18.75;6.97;;;-0.80;99.90;;;;;;5035528;28;20021;-79
2023/01/11 07:22:21;;;;;;;25.05;6.70;;;-0.80;99.90;;;;;;5053601;28;20021;-79
2023/01/11 07:24:47;;;;;;;16.20;7.40;;;-0.80;99.90;;;;;;5053451;28;20025;-79
2023/01/11 07:27:13;;;;;;;14.45;6.90;;;-0.70;99.90;;;;;;5052983;28;20044;-79
2023/01/11 07:29:39;;;;;;;17.50;6.97;;;-0.70;99.90;;;;;;5053399;28;20029;-79
2023/01/11 07:32:05;;;;;;;19.05;7.40;;;-0.70;99.90;;;;;;5036331;28;20378;-79
2023/01/11 07:34:31;;;;;;;17.48;7.90;;;-0.70;99.90;;;;;;5057007;28;20091;-79
2023/01/11 07:36:56;;;;;;;18.38;6.60;;;-0.70;99.90;;;;;;5057166;28;20029;-79
2023/01/11 07:39:22;;;;;;;11.57;6.22;;;-0.60;99.90;;;;;;5039051;28;20079;-79
2023/01/11 07:44:32;;;;;;;17.48;6.80;;;-0.60;99.90;;;;;;5056475;28;20056;-79
2023/01/11 07:46:57;;;;;;;23.50;7.47;;;-0.60;99.90;;;;;;5056472;28;20470;-79
2023/01/11 07:49:23;;;;;;;18.02;7.00;;;-0.60;99.90;;;;;;5056511;28;20122;-79
2023/01/11 07:51:50;;;;;;;18.00;7.68;;;-0.60;99.90;;;;;;5039272;28;20061;-79
2023/01/11 07:54:17;;;;;;;16.75;6.60;;;-0.50;99.90;;;;;;5039080;28;20025;-79
2023/01/11 07:56:42;;;;;;;12.77;6.00;;;-0.50;99.90;;;;;;5038642;28;20092;-79
2023/01/11 07:59:09;;;;;;;13.73;6.30;;;-0.50;99.90;;;;;;5038743;28;20029;-79
2023/01/11 08:01:34;;;;;;;17.52;6.32;;;-0.40;99.90;;;;;;5056634;28;20028;-79
2023/01/11 08:04:00;;;;;;;16.63;6.18;;;-0.40;99.90;;;;;;5038585;28;20025;-79
2023/01/11 08:06:26;;;;;;;15.45;5.93;;;-0.30;99.90;;;;;;5056332;28;20112;-79
2023/01/11 08:08:51;;;;;;;15.80;5.55;;;-0.30;99.90;;;;;;5038351;28;20463;-79
2023/01/11 08:16:45;;;;;;;11.88;4.10;;;0.10;99.90;;;;;;5056077;28;20035;-79
2023/01/11 08:19:11;;;;;;;12.48;4.65;;;0.30;99.90;;;;;;5038319;28;20116;-79
2023/01/11 08:21:36;;;;;;;18.23;4.80;;;0.60;99.90;;;;;;5038393;28;20116;-79
2023/01/11 08:24:02;;;;;;;9.45;3.97;;;0.90;99.90;;;;;;5056114;28;20445;-79
2023/01/11 08:26:28;;;;;;;11.50;4.65;;;1.20;99.90;;;;;;5056171;28;20490;-78
2023/01/11 08:28:53;;;;;;;8.27;3.22;;;1.40;99.90;;;;;;5058720;28;20071;-78
2023/01/11 08:31:20;;;;;;;12.82;3.97;;;1.90;99.90;;;;;;5044282;28;20017;-78
2023/01/11 08:33:47;;;;;;;9.80;3.00;;;2.40;99.90;;;;;;5061503;28;20079;-78
2023/01/11 08:36:13;;;;;;;6.05;2.53;;;3.00;99.90;;;;;;5063058;28;20025;-79
2023/01/11 08:38:39;;;;;;;10.93;2.60;;;3.40;99.90;;;;;;5062924;28;20052;-78
2023/01/11 08:41:09;;;;;;;7.68;2.65;;;3.80;99.90;;;;;;5060819;28;20044;-79
2023/01/11 08:43:36;;;;;;;8.07;4.20;;;4.30;99.90;;;;;;5060763;28;20382;-79
2023/01/11 08:46:01;;;;;;;14.07;3.38;;;4.90;99.90;;;;;;5060315;28;20036;-80
2023/01/11 08:48:27;;;;;;;7.47;2.83;;;5.40;99.90;;;;;;5060074;28;20033;-78
2023/01/11 08:50:53;;;;;;;13.07;4.22;;;5.90;99.90;;;;;;5059969;28;20025;-79
2023/01/11 08:53:19;;;;;;;8.63;3.97;;;5.90;99.90;;;;;;5060273;28;20032;-79
2023/01/11 08:55:49;;;;;;;11.32;4.22;;;6.00;99.90;;;;;;5041405;28;20036;-79
2023/01/11 08:58:15;;;;;;;15.80;3.58;;;5.80;99.90;;;;;;5042802;28;20145;-79
2023/01/11 09:00:41;;;;;;;12.40;3.30;;;5.60;99.90;;;;;;5059976;28;20052;-80
2023/01/11 09:03:07;;;;;;;23.80;2.95;;;5.40;99.90;;;;;;5061367;28;20025;-79
2023/01/11 09:05:33;;;;;;;6.50;2.10;;;5.50;99.90;;;;;;5060417;28;20029;-80
2023/01/11 09:07:59;;;;;;;7.43;2.13;;;5.60;99.90;;;;;;5042838;28;20033;-78
2023/01/11 09:10:25;;;;;;;5.63;1.17;;;5.60;99.90;;;;;;5043465;28;20029;-79
2023/01/11 09:12:52;;;;;;;2.95;1.33;;;5.60;99.90;;;;;;5060525;28;20164;-79
2023/01/11 09:15:18;;;;;;;4.82;1.48;;;6.20;99.90;;;;;;5058773;28;20040;-79
2023/01/11 09:17:46;;;;;;;8.43;1.80;;;6.80;99.90;;;;;;5040994;28;20033;-79
2023/01/11 09:20:11;;;;;;;4.05;1.33;;;7.60;99.90;;;;;;5060080;28;20459;-79
2023/01/11 09:22:37;;;;;;;5.72;2.20;;;8.20;99.90;;;;;;5038492;28;20027;-79
2023/01/11 09:25:04;;;;;;;10.45;2.78;;;8.60;99.60;;;;;;5055287;28;20112;-79
2023/01/11 09:27:30;;;;;;;4.90;1.90;;;9.00;98.10;;;;;;5036421;28;20107;-79
2023/01/11 09:29:56;;;;;;;7.68;1.75;;;9.50;95.40;;;;;;5037019;28;20028;-78
2023/01/11 09:32:22;;;;;;;3.63;1.83;;;9.60;94.90;;;;;;5054662;28;20110;-79
2023/01/11 09:34:48;;;;;;;5.85;2.42;;;9.80;93.20;;;;;;5054739;28;20025;-79
2023/01/11 09:37:18;;;;;;;10.18;2.25;;;10.10;92.10;;;;;;5054542;28;20116;-78
2023/01/11 09:39:45;;;;;;;9.38;2.10;;;10.40;90.60;;;;;;5054531;28;20128;-78
2023/01/11 09:42:38;;;;;;;5.60;2.00;;;10.90;87.90;;;;;;5054459;28;20053;-78
2023/01/11 09:45:06;;;;;;;18.08;3.25;;;11.40;83.10;;;;;;5032769;28;20386;-78
2023/01/11 09:47:43;;;;;;;6.55;2.33;;;11.70;80.40;;;;;;5054386;28;20025;-78
2023/01/11 09:50:11;;;;;;;7.30;2.40;;;12.10;77.20;;;;;;5054554;28;20037;-78
2023/01/11 09:52:44;;;;;;;4.00;1.60;;;12.10;75.10;;;;;;5036352;28;20035;-78
2023/01/11 09:55:22;;;;;;;13.07;3.38;;;12.30;71.50;;;;;;5054139;28;20033;-78
2023/01/11 09:58:04;;;;;;;18.20;3.88;;;12.50;70.60;;;;;;5036380;28;20470;-78
2023/01/11 10:00:36;;;;;;;5.53;1.38;;;11.90;70.00;;;;;;5054268;28;20075;-78
2023/01/11 10:03:31;;;;;;;7.47;2.35;;;11.20;72.40;;;;;;5054185;28;20025;-77
2023/01/11 10:06:20;;;;;;;3.15;2.33;;;10.60;74.80;;;;;;5036052;28;20056;-77
2023/01/11 10:08:58;;;;;;;9.57;3.90;;;10.70;76.30;;;;;;5054046;28;20037;-78
2023/01/11 10:11:36;;;;;;;17.60;3.13;;;10.70;75.90;;;;;;5054181;28;20079;-78
2023/01/11 10:14:26;;;;;;;20.38;4.43;;;10.50;77.80;;;;;;5036114;28;20823;-78
2023/01/11 10:16:59;;;;;;;20.80;2.78;;;10.20;79.00;;;;;;5036009;28;20360;-77
2023/01/11 10:19:34;;;;;;;8.18;1.67;;;9.80;80.60;;;;;;5054355;28;20084;-77
2023/01/11 10:22:33;;;;;;;14.73;2.15;;;9.60;87.20;;;;;;5054059;28;20031;-78
2023/01/11 10:25:04;;;;;;;10.43;3.20;;;9.20;88.90;;;;;;5035152;28;20033;-77
2023/01/11 10:27:37;;;;;;;12.88;3.67;;;8.90;90.20;;;;;;5053768;28;20490;-78
2023/01/11 10:33:27;;;;;;;14.27;2.60;;;8.60;91.20;;;;;;5054364;28;20037;-78
2023/01/11 10:36:49;;;;;;;9.07;2.00;;;8.60;91.30;;;;;;5037611;28;20029;-77
2023/01/11 10:40:02;;;;;;;14.95;2.17;;;8.50;91.80;;;;;;5020064;28;20040;-78
2023/01/11 10:42:32;;;;;;;13.27;2.20;;;8.50;91.40;;;;;;5037424;28;20068;-79
2023/01/11 10:45:20;;;;;;;6.85;1.50;;;8.60;91.20;;;;;;5038016;28;20029;-78
2023/01/11 10:48:02;;;;;;;3.63;1.45;;;8.50;88.40;;;;;;5057153;28;20485;-78
2023/01/11 10:50:37;;;;;;;5.25;1.30;;;8.50;87.90;;;;;;5057982;28;20025;-78
2023/01/11 10:53:27;;;;;;;8.25;2.95;;;8.50;87.10;;;;;;5040220;28;20032;-78
2023/01/11 10:56:08;;;;;;;13.45;2.00;;;8.50;86.50;;;;;;5039675;28;20421;-78
2023/01/11 10:59:02;;;;;;;7.88;1.40;;;8.40;84.40;;;;;;5057199;28;20092;-78
2023/01/11 11:01:40;;;;;;;4.40;1.15;;;8.30;85.50;;;;;;5039199;28;20160;-78
2023/01/11 11:04:24;;;;;;;4.10;1.45;;;8.30;85.40;;;;;;5037651;28;20025;-78
2023/01/11 11:07:02;;;;;;;7.30;1.95;;;8.30;86.30;;;;;;5054983;28;20083;-78
2023/01/11 11:09:49;;;;;;;7.83;2.10;;;8.20;87.60;;;;;;5060175;28;20054;-77
2023/01/11 11:12:37;;;;;;;7.78;3.53;;;8.10;88.80;;;;;;5060291;28;20025;-78
2023/01/11 11:15:09;;;;;;;9.52;3.85;;;8.10;89.50;;;;;;5042825;28;20455;-77
2023/01/11 11:17:38;;;;;;;11.32;3.35;;;8.00;89.60;;;;;;5042365;28;20059;-78
2023/01/11 11:20:19;;;;;;;;;;;8.10;90.40;;;;;;5060830;28;20518;-77
2023/01/11 11:22:49;;;;;;;6.07;2.20;;;8.10;90.70;;;;;;5042558;28;19905;-79
2023/01/11 11:25:16;;;;;;;7.60;2.20;;;8.20;90.60;;;;;;5058366;28;20021;-78
2023/01/11 11:27:57;;;;;;;9.05;2.35;;;8.20;90.30;;;;;;5039154;28;20059;-78
2023/01/11 11:30:44;;;;;;;6.03;1.90;;;8.30;90.10;;;;;;5057719;28;20032;-78
2023/01/11 11:33:16;;;;;;;13.05;2.38;;;8.30;89.70;;;;;;5057844;28;20021;-78
2023/01/11 11:35:45;;;;;;;7.05;2.22;;;8.30;90.60;;;;;;5057657;28;20036;-77
2023/01/11 11:38:27;;;;;;;8.73;2.10;;;8.40;90.60;;;;;;5040133;28;20036;-78
2023/01/11 11:41:07;;;;;;;6.65;2.25;;;8.50;89.60;;;;;;5040241;28;20467;-78
2023/01/11 11:43:35;;;;;;;4.95;1.92;;;8.60;90.20;;;;;;5057522;28;20489;-78
2023/01/11 11:46:04;;;;;;;4.55;1.63;;;8.70;90.00;;;;;;5040013;28;20378;-78
2023/01/11 11:48:32;;;;;;;11.02;2.72;;;8.70;88.80;;;;;;5039699;28;20036;-78
2023/01/11 11:51:01;;;;;;;5.47;2.33;;;8.70;88.80;;;;;;5057530;28;20363;-78
2023/01/11 11:53:36;;;;;;;;;;;8.90;87.10;;;;;;5040333;28;20056;-78
2023/01/11 11:56:22;;;;;;;11.45;3.13;;;9.20;85.90;;;;;;5038876;28;19912;-78
2023/01/11 11:58:49;;;;;;;8.07;2.45;;;9.30;85.60;;;;;;5057100;28;20032;-78
2023/01/11 12:01:38;;;;;;;10.48;2.65;;;9.40;85.40;;;;;;5041475;28;20510;-78
2023/01/11 12:04:48;;;;;;;9.23;2.80;;;9.30;84.90;;;;;;5042590;28;20025;-80
2023/01/11 12:07:20;;;;;;;4.18;2.00;;;9.20;85.90;;;;;;5058268;28;20035;-78
2023/01/11 12:09:57;;;;;;;8.55;2.30;;;9.00;85.70;;;;;;5057506;28;20389;-78
2023/01/11 12:12:23;;;;;;;8.05;2.35;;;9.00;87.10;;;;;;5057675;28;20029;-78
2023/01/11 12:15:04;;;;;;;8.55;2.30;;;9.00;87.70;;;;;;5039953;28;20032;-79
2023/01/11 12:17:30;;;;;;;6.85;2.47;;;9.20;88.10;;;;;;5059182;28;20453;-78
2023/01/11 12:19:56;;;;;;;6.05;1.88;;;9.30;86.80;;;;;;5040591;28;20406;-78
2023/01/11 12:22:29;;;;;;;11.30;2.63;;;9.40;85.60;;;;;;5059424;28;20036;-79
2023/01/11 12:25:07;;;;;;;6.60;2.40;;;9.50;85.20;;;;;;5042065;28;20048;-79
2023/01/11 12:27:48;;;;;;;4.63;1.70;;;9.50;84.40;;;;;;5058275;28;20478;-78
2023/01/11 12:30:24;;;;;;;6.25;2.60;;;9.40;84.20;;;;;;5057929;28;20080;-79
2023/01/11 12:32:58;;;;;;;7.60;1.77;;;9.40;83.30;;;;;;5057983;28;20057;-78
2023/01/11 12:35:41;;;;;;;3.05;2.03;;;9.30;83.00;;;;;;5058553;28;20489;-79
2023/01/11 12:38:23;;;;;;;8.35;1.60;;;9.40;84.60;;;;;;5059395;28;20029;-79
2023/01/11 12:41:42;;;;;;;3.28;1.35;;;9.80;81.70;;;;;;5041380;28;20374;-79
2023/01/11 12:44:27;;;;;;;4.40;1.47;;;10.50;78.30;;;;;;5054589;28;20039;-78
2023/01/11 12:47:16;;;;;;;7.15;1.88;;;10.80;76.20;;;;;;5040392;28;20127;-77
2023/01/11 12:49:56;;;;;;;;;;;10.80;76.00;;;;;;5039996;28;20032;-78
2023/01/11 12:52:38;;;;;;;7.60;1.70;;;10.40;75.60;;;;;;5058882;28;19909;-78
2023/01/11 12:55:41;;;;;;;5.10;1.60;;;9.90;77.30;;;;;;5040410;28;20075;-79
2023/01/11 12:58:12;;;;;;;6.45;1.73;;;9.50;79.40;;;;;;5058976;28;20033;-78
2023/01/11 13:01:11;;;;;;;5.43;1.92;;;9.20;80.90;;;;;;5041568;28;20108;-78
2023/01/11 13:04:02;;;;;;;9.25;2.85;;;9.00;82.20;;;;;;5057962;28;20028;-78
2023/01/11 13:06:59;;;;;;;7.90;2.00;;;8.80;83.50;;;;;;5040766;28;20119;-78
2023/01/11 13:09:33;;;;;;;4.65;1.83;;;8.70;84.60;;;;;;5042395;28;20029;-78
2023/01/11 13:12:01;;;;;;;5.78;1.65;;;8.70;85.60;;;;;;5040691;28;20056;-78
2023/01/11 13:14:33;;;;;;;7.38;1.90;;;8.50;86.60;;;;;;5058597;28;20478;-78
2023/01/11 13:17:08;;;;;;;7.50;1.88;;;8.50;87.20;;;;;;5040201;28;20033;-78
2023/01/11 13:20:06;;;;;;;7.50;2.17;;;8.40;87.70;;;;;;5057696;28;20024;-76
2023/01/11 13:22:54;;;;;;;5.37;1.43;;;8.40;88.50;;;;;;5039538;28;20025;-77
2023/01/11 13:25:24;;;;;;;4.77;1.77;;;8.40;89.40;;;;;;5041674;28;20466;-78
2023/01/11 13:27:53;;;;;;;9.70;2.85;;;8.30;90.00;;;;;;5042005;28;20055;-77
2023/01/11 13:30:23;;;;;;;9.52;2.50;;;8.20;90.20;;;;;;5042385;28;20029;-79
2023/01/11 13:32:57;;;;;;;5.93;2.28;;;8.20;90.50;;;;;;5042854;28;20056;-78
2023/01/11 13:35:48;;;;;;;6.05;2.05;;;8.30;90.60;;;;;;5042250;28;20028;-77
2023/01/11 13:38:38;;;;;;;13.75;2.60;;;8.40;90.70;;;;;;5042905;28;20060;-78
2023/01/11 13:41:20;;;;;;;9.05;2.33;;;8.50;90.20;;;;;;5059621;28;20017;-78